Time;durP1;ratioP1;P1;durP2;ratioP2;P2;SDS_P1;SDS_P2;PMS_P1;PMS_P2;Temp;Humidity;BMP_temperature;BMP_pressure;BME280_temperature;BME280_humidity;BME280_pressure;Samples;Min_cycle;Max_cycle;Signal;HPM_P1;HPM_P2
2022/05/21 00:00:03;;;;;;;21.42;8.63;;;;;;;14.52;100.00;101573.91;5084591;28;20787;-73
2022/05/21 00:02:30;;;;;;;17.73;7.60;;;;;;;14.52;100.00;101578.72;5076470;28;20055;-74
2022/05/21 00:04:57;;;;;;;16.83;7.32;;;;;;;14.46;100.00;101578.34;5083640;28;20780;-75
2022/05/21 00:07:24;;;;;;;15.15;6.40;;;;;;;14.44;100.00;101574.34;5081293;28;20049;-74
2022/05/21 00:09:50;;;;;;;13.57;4.85;;;;;;;14.45;100.00;101570.38;5082670;28;20041;-76
2022/05/21 00:12:16;;;;;;;19.70;8.65;;;;;;;14.41;100.00;101583.53;5080338;28;20074;-74
2022/05/21 00:14:44;;;;;;;8.88;4.03;;;;;;;14.32;100.00;101572.81;5081753;28;20045;-76
2022/05/21 00:17:11;;;;;;;13.38;5.13;;;;;;;14.39;100.00;101583.94;5082965;28;20420;-77
2022/05/21 00:19:37;;;;;;;7.55;3.58;;;;;;;14.38;100.00;101590.69;5078614;28;20053;-76
2022/05/21 00:22:04;;;;;;;12.13;5.68;;;;;;;14.26;100.00;101595.88;5073840;28;20052;-76
2022/05/21 00:24:30;;;;;;;12.13;5.10;;;;;;;14.41;100.00;101580.75;5077343;28;20135;-74
2022/05/21 00:26:57;;;;;;;19.20;6.80;;;;;;;14.33;100.00;101570.81;5076283;28;20118;-76
2022/05/21 00:29:26;;;;;;;18.48;8.85;;;;;;;14.32;100.00;101578.38;5080539;28;20051;-76
2022/05/21 00:31:52;;;;;;;12.13;4.68;;;;;;;14.24;100.00;101584.38;5086250;28;20494;-75
2022/05/21 00:34:19;;;;;;;18.80;7.13;;;;;;;14.02;100.00;101588.34;5085094;28;20072;-74
2022/05/21 00:36:45;;;;;;;22.27;9.77;;;;;;;14.21;100.00;101576.78;5078402;28;20135;-75
2022/05/21 00:39:12;;;;;;;13.95;6.43;;;;;;;14.09;100.00;101571.63;5082076;28;20089;-74
2022/05/21 00:41:41;;;;;;;17.17;5.65;;;;;;;14.00;100.00;101572.03;5080870;28;20050;-74
2022/05/21 00:44:08;;;;;;;20.30;8.10;;;;;;;13.97;100.00;101580.41;5087846;28;20054;-74
2022/05/21 00:46:38;;;;;;;20.15;8.80;;;;;;;13.96;100.00;101573.25;5083238;28;20131;-74
2022/05/21 00:49:08;;;;;;;21.98;8.25;;;;;;;13.89;100.00;101576.84;5073146;28;20504;-74
2022/05/21 00:51:43;;;;;;;22.27;8.55;;;;;;;13.94;100.00;101575.66;5070779;28;20052;-74
2022/05/21 00:54:11;;;;;;;11.10;4.90;;;;;;;13.85;100.00;101583.59;5077588;28;20044;-74
2022/05/21 00:56:50;;;;;;;21.00;9.55;;;;;;;13.85;100.00;101575.25;5080478;28;20059;-74
2022/05/21 01:02:07;;;;;;;12.73;5.25;;;;;;;13.72;100.00;101571.28;5077154;28;20075;-73
2022/05/21 01:04:34;;;;;;;19.83;6.90;;;;;;;13.71;100.00;101572.47;5082706;28;20056;-72
2022/05/21 01:07:02;;;;;;;19.83;8.70;;;;;;;13.73;100.00;101581.22;5084886;28;20709;-74
2022/05/21 01:09:30;;;;;;;7.95;3.67;;;;;;;13.67;100.00;101575.25;5079628;28;20128;-76
2022/05/21 01:11:57;;;;;;;23.83;9.63;;;;;;;13.73;100.00;101570.09;5078817;28;20518;-74
2022/05/21 01:14:23;;;;;;;21.60;8.57;;;;;;;13.68;100.00;101568.50;5078975;28;20126;-74
2022/05/21 01:16:51;;;;;;;23.02;9.35;;;;;;;13.67;100.00;101572.47;5079789;28;20044;-72
2022/05/21 01:19:18;;;;;;;14.57;6.20;;;;;;;13.59;100.00;101573.66;5072183;28;20056;-75
2022/05/21 01:21:44;;;;;;;22.08;9.25;;;;;;;13.59;100.00;101570.09;5080007;28;20504;-72
2022/05/21 01:24:11;;;;;;;21.05;9.18;;;;;;;13.61;100.00;101574.06;5081667;28;20056;-75
2022/05/21 01:26:39;;;;;;;21.42;9.20;;;;;;;13.58;100.00;101576.84;5084678;28;20113;-73
2022/05/21 01:29:14;;;;;;;24.08;9.80;;;;;;;13.48;100.00;101580.41;5078459;28;20186;-73
2022/05/21 01:31:48;;;;;;;28.38;11.05;;;;;;;13.59;100.00;101578.44;5081366;28;20119;-74
2022/05/21 01:34:14;;;;;;;23.88;11.15;;;;;;;13.54;100.00;101568.53;5079430;28;20522;-73
2022/05/21 01:36:41;;;;;;;21.38;10.88;;;;;;;13.50;100.00;101567.69;5078057;28;20048;-75
2022/05/21 01:39:07;;;;;;;21.05;8.00;;;;;;;13.37;100.00;101569.31;5087244;28;20159;-74
2022/05/21 01:41:34;;;;;;;14.52;5.85;;;;;;;13.31;100.00;101565.31;5077663;28;20131;-73
2022/05/21 01:46:45;;;;;;;15.25;5.30;;;;;;;13.32;100.00;101566.09;5082720;28;20119;-73
2022/05/21 01:49:12;;;;;;;12.57;4.63;;;;;;;13.27;100.00;101564.53;5076155;28;20056;-72
2022/05/21 01:51:38;;;;;;;8.93;4.05;;;;;;;13.27;100.00;101564.53;5070031;28;20483;-72
2022/05/21 01:54:05;;;;;;;13.05;4.47;;;;;;;13.26;100.00;101564.91;5084979;28;20080;-72
2022/05/21 01:56:31;;;;;;;17.95;7.68;;;;;;;13.29;100.00;101556.56;5079786;28;20543;-73
2022/05/21 01:58:58;;;;;;;22.15;9.45;;;;;;;13.37;100.00;101563.75;5084117;28;20048;-73
2022/05/21 02:01:25;;;;;;;26.13;11.15;;;;;;;13.40;100.00;101565.72;5077981;28;20051;-74
2022/05/21 02:03:51;;;;;;;13.73;5.40;;;;;;;13.36;100.00;101564.13;5080031;28;20052;-73
2022/05/21 02:06:18;;;;;;;16.27;6.07;;;;;;;13.35;100.00;101559.75;5068771;28;20055;-75
2022/05/21 02:08:44;;;;;;;17.98;6.07;;;;;;;13.34;100.00;101547.84;5079156;28;20135;-72
2022/05/21 02:11:12;;;;;;;9.35;4.05;;;;;;;13.43;100.00;101551.00;5082929;28;20135;-73
2022/05/21 02:13:38;;;;;;;9.63;4.60;;;;;;;13.45;100.00;101554.22;5075387;28;20478;-73
2022/05/21 02:16:05;;;;;;;9.40;3.15;;;;;;;13.52;100.00;101545.88;5075817;28;20420;-72
2022/05/21 02:18:31;;;;;;;7.60;2.80;;;;;;;13.54;100.00;101551.84;5077271;28;20066;-73
2022/05/21 02:20:58;;;;;;;21.67;8.20;;;;;;;13.57;100.00;101551.00;5080874;28;20044;-72
2022/05/21 02:23:24;;;;;;;6.47;2.92;;;;;;;13.59;100.00;101547.84;5077644;28;20074;-73
2022/05/21 02:25:51;;;;;;;14.07;6.18;;;;;;;13.66;100.00;101539.50;5079563;28;20056;-73
2022/05/21 02:28:18;;;;;;;15.55;6.40;;;;;;;13.65;100.00;101541.50;5084831;28;20071;-73
2022/05/21 02:30:45;;;;;;;20.05;8.30;;;;;;;13.71;100.00;101541.88;5077241;28;20127;-74
2022/05/21 02:33:12;;;;;;;14.32;6.65;;;;;;;13.69;100.00;101541.47;5080139;28;20048;-75
2022/05/21 02:35:39;;;;;;;17.83;6.53;;;;;;;13.70;100.00;101538.31;5085748;28;20044;-73
2022/05/21 02:40:50;;;;;;;16.10;5.82;;;;;;;13.86;100.00;101540.66;5080063;28;20590;-73
2022/05/21 02:43:17;;;;;;;16.88;6.45;;;;;;;13.82;100.00;101543.47;5076736;28;20174;-74
2022/05/21 02:45:44;;;;;;;10.40;3.88;;;;;;;13.77;100.00;101556.97;5079930;28;20072;-73
2022/05/21 02:48:11;;;;;;;13.98;3.65;;;;;;;13.77;100.00;101545.88;5081589;28;20044;-72
2022/05/21 02:50:38;;;;;;;21.13;8.38;;;;;;;13.86;100.00;101546.22;5084910;28;20579;-73
2022/05/21 02:53:07;;;;;;;21.52;8.13;;;;;;;13.88;100.00;101546.63;5084479;28;20420;-72
2022/05/21 02:55:34;;;;;;;23.08;9.13;;;;;;;13.88;100.00;101555.78;5081329;28;20044;-73
2022/05/21 02:58:01;;;;;;;7.75;3.53;;;;;;;13.79;100.00;101552.59;5078023;28;20085;-74
2022/05/21 03:00:30;;;;;;;20.02;9.35;;;;;;;13.86;100.00;101546.22;5087876;28;20571;-73
2022/05/21 03:02:57;;;;;;;11.60;4.63;;;;;;;13.83;100.00;101552.59;5072433;28;20773;-71
2022/05/21 03:05:25;;;;;;;11.88;3.38;;;;;;;13.80;100.00;101556.19;5076826;28;20071;-74
2022/05/21 03:07:52;;;;;;;19.67;9.88;;;;;;;13.82;100.00;101565.72;5080770;28;20056;-72
2022/05/21 03:10:27;;;;;;;20.88;8.38;;;;;;;13.75;100.00;101557.38;5075874;28;20075;-73
2022/05/21 03:13:00;;;;;;;27.83;13.50;;;;;;;13.86;100.00;101551.78;5081589;28;20054;-73
2022/05/21 03:15:33;;;;;;;25.02;12.90;;;;;;;13.89;100.00;101570.47;5075416;28;20062;-73
2022/05/21 03:18:01;;;;;;;24.27;13.23;;;;;;;13.87;100.00;101565.31;5080469;28;20135;-74
2022/05/21 03:20:27;;;;;;;10.18;3.78;;;;;;;13.80;100.00;101568.09;5077165;28;20049;-73
2022/05/21 03:22:54;;;;;;;16.90;7.00;;;;;;;13.85;100.00;101567.72;5075195;28;20555;-75
2022/05/21 03:25:23;;;;;;;20.95;8.93;;;;;;;13.80;100.00;101558.97;5086106;28;20048;-74
2022/05/21 03:27:50;;;;;;;15.90;7.78;;;;;;;13.76;100.00;101558.16;5085234;28;20506;-72
2022/05/21 03:30:20;;;;;;;12.35;5.30;;;;;;;13.77;100.00;101566.09;5087733;28;20646;-74
2022/05/21 03:32:47;;;;;;;18.67;8.88;;;;;;;13.70;100.00;101557.78;5086963;28;20070;-74
2022/05/21 03:35:16;;;;;;;28.30;12.88;;;;;;;13.81;100.00;101561.34;5075907;28;20094;-73
2022/05/21 03:37:43;;;;;;;14.63;7.22;;;;;;;13.78;100.00;101570.50;5084874;28;20048;-74
2022/05/21 03:40:13;;;;;;;23.10;10.60;;;;;;;13.84;100.00;101570.88;5088913;28;20347;-73
2022/05/21 03:42:40;;;;;;;13.38;6.03;;;;;;;13.76;100.00;101572.06;5074791;28;20127;-73
2022/05/21 03:45:08;;;;;;;23.48;13.82;;;;;;;13.91;100.00;101560.53;5082699;28;20105;-74
2022/05/21 03:47:35;;;;;;;25.27;13.05;;;;;;;13.92;100.00;101561.31;5084120;28;20104;-74
2022/05/21 03:50:04;;;;;;;9.82;4.30;;;;;;;13.77;100.00;101559.75;5083182;28;20078;-73
2022/05/21 03:52:31;;;;;;;14.18;5.97;;;;;;;13.84;100.00;101565.31;5085211;28;20143;-75
2022/05/21 03:54:58;;;;;;;11.65;3.88;;;;;;;13.84;100.00;101566.09;5086440;28;20048;-73
2022/05/21 03:57:25;;;;;;;7.68;3.10;;;;;;;13.80;100.00;101570.88;5074463;28;20052;-74
2022/05/21 03:59:52;;;;;;;20.38;8.63;;;;;;;13.85;100.00;101573.28;5079126;28;20408;-74
2022/05/21 04:02:18;;;;;;;19.23;8.80;;;;;;;13.72;100.00;101580.44;5086524;28;20058;-74
2022/05/21 04:04:45;;;;;;;26.90;12.30;;;;;;;13.85;100.00;101576.06;5080368;28;20467;-74
2022/05/21 04:07:11;;;;;;;17.50;8.18;;;;;;;13.84;100.00;101566.09;5090329;28;20048;-75
2022/05/21 04:09:38;;;;;;;8.45;3.63;;;;;;;13.78;100.00;101570.50;5075857;28;20063;-73
2022/05/21 04:12:05;;;;;;;18.45;8.07;;;;;;;13.80;100.00;101565.31;5082340;28;20127;-73
2022/05/21 04:14:31;;;;;;;15.13;7.57;;;;;;;13.88;100.00;101568.88;5087635;28;20072;-73
2022/05/21 04:17:04;;;;;;;17.90;6.05;;;;;;;13.72;100.00;101574.06;5079126;28;20057;-75
2022/05/21 04:19:31;;;;;;;17.40;6.63;;;;;;;13.73;100.00;101578.44;5086571;28;20702;-75
2022/05/21 04:21:58;;;;;;;19.35;7.80;;;;;;;13.86;100.00;101579.59;5087786;28;20063;-74
2022/05/21 04:24:24;;;;;;;14.90;6.05;;;;;;;13.73;100.00;101570.88;5080961;28;20048;-75
2022/05/21 04:26:52;;;;;;;19.70;6.18;;;;;;;13.81;100.00;101578.06;5082448;28;20056;-73
2022/05/21 04:29:19;;;;;;;17.95;9.35;;;;;;;13.82;100.00;101573.25;5085629;28;20055;-73
2022/05/21 04:31:46;;;;;;;16.48;8.25;;;;;;;13.85;100.00;101583.59;5078281;28;20131;-73
2022/05/21 04:34:12;;;;;;;10.45;3.63;;;;;;;13.80;100.00;101584.78;5084795;28;20048;-75
2022/05/21 04:36:39;;;;;;;31.15;12.95;;;;;;;13.86;100.00;101587.94;5088872;28;20054;-73
2022/05/21 04:39:06;;;;;;;15.98;8.77;;;;;;;13.91;100.00;101588.34;5084553;28;20053;-73
2022/05/21 04:41:33;;;;;;;25.35;10.68;;;;;;;13.90;100.00;101578.41;5077817;28;20040;-74
2022/05/21 04:44:02;;;;;;;26.52;10.77;;;;;;;13.92;100.00;101578.81;5079319;28;20052;-74
2022/05/21 04:46:31;;;;;;;17.77;6.68;;;;;;;13.91;100.00;101588.34;5081990;28;20051;-73
2022/05/21 04:48:58;;;;;;;17.02;7.57;;;;;;;13.80;100.00;101595.91;5083423;28;20048;-73
2022/05/21 04:51:36;;;;;;;25.80;11.80;;;;;;;14.00;100.00;101585.97;5072688;28;20399;-73
2022/05/21 04:54:03;;;;;;;16.10;6.63;;;;;;;13.86;100.00;101593.53;5081356;28;20554;-74
2022/05/21 04:56:31;;;;;;;18.88;6.22;;;;;;;13.88;100.00;101589.16;5078868;28;20276;-74
2022/05/21 04:59:05;;;;;;;9.90;4.25;;;;;;;13.95;100.00;101583.59;5078101;28;20062;-75
2022/05/21 05:01:32;;;;;;;14.02;5.55;;;;;;;13.99;100.00;101584.38;5080878;28;20055;-77
2022/05/21 05:03:59;;;;;;;18.27;7.10;;;;;;;14.03;100.00;101587.13;5079329;28;20048;-75
2022/05/21 05:06:25;;;;;;;20.33;8.88;;;;;;;14.00;100.00;101580.41;5087412;28;20501;-76
2022/05/21 05:08:52;;;;;;;19.10;8.13;;;;;;;13.97;100.00;101595.09;5080808;28;20139;-74
2022/05/21 05:11:18;;;;;;;19.05;7.38;;;;;;;14.05;100.00;101601.47;5079992;28;20099;-73
2022/05/21 05:13:45;;;;;;;8.15;3.40;;;;;;;14.15;100.00;101611.78;5078553;28;20090;-73
2022/05/21 05:16:11;;;;;;;13.85;5.57;;;;;;;14.14;100.00;101608.19;5077856;28;20059;-74
2022/05/21 05:18:38;;;;;;;14.18;5.50;;;;;;;14.16;100.00;101608.59;5085984;28;20119;-72
2022/05/21 05:21:04;;;;;;;16.20;5.57;;;;;;;14.14;100.00;101613.75;5086462;28;20044;-74
2022/05/21 05:23:31;;;;;;;20.90;9.32;;;;;;;14.16;100.00;101618.94;5077048;28;20052;-72
2022/05/21 05:26:00;;;;;;;17.73;6.45;;;;;;;14.07;100.00;101624.13;5081200;28;20512;-74
2022/05/21 05:28:28;;;;;;;21.98;8.27;;;;;;;14.21;100.00;101616.53;5088271;28;20082;-73
2022/05/21 05:30:55;;;;;;;9.68;4.70;;;;;;;14.18;100.00;101611.00;5077894;28;20063;-73
2022/05/21 05:33:23;;;;;;;21.20;10.05;;;;;;;14.25;100.00;101616.56;5080984;28;20044;-75
2022/05/21 05:35:53;;;;;;;11.60;4.85;;;;;;;14.10;100.00;101621.34;5086175;28;20053;-74
2022/05/21 05:38:22;;;;;;;11.45;4.82;;;;;;;14.29;100.00;101620.13;5078018;28;20135;-73
2022/05/21 05:40:50;;;;;;;13.98;3.78;;;;;;;14.21;100.00;101613.75;5080581;28;20079;-73
2022/05/21 05:43:19;;;;;;;16.65;7.00;;;;;;;14.19;100.00;101616.16;5076574;28;20112;-75
2022/05/21 05:45:48;;;;;;;10.95;3.97;;;;;;;14.20;100.00;101616.94;5082500;28;20532;-75
2022/05/21 05:48:16;;;;;;;19.75;7.22;;;;;;;14.27;100.00;101616.94;5071765;28;20451;-75
2022/05/21 05:50:42;;;;;;;26.52;10.88;;;;;;;14.44;100.00;101614.13;5071311;28;20131;-75
2022/05/21 05:53:09;;;;;;;10.50;4.50;;;;;;;14.43;100.00;101608.97;5072173;28;20093;-76
2022/05/21 05:55:36;;;;;;;26.98;10.27;;;;;;;14.41;100.00;101626.06;5082506;28;20124;-77
2022/05/21 05:59:48;;;;;;;16.33;5.57;;;;;;;14.40;100.00;101626.47;5082127;28;20464;-76
2022/05/21 06:00:50;;;;;;;17.30;6.22;;;;;;;14.24;100.00;101635.25;5082025;28;20040;-77
2022/05/21 06:03:16;;;;;;;11.70;3.80;;;;;;;14.39;100.00;101631.28;5084999;28;20396;-75
2022/05/21 06:05:43;;;;;;;20.42;8.07;;;;;;;14.41;100.00;101634.44;5084596;28;20055;-77
2022/05/21 06:08:10;;;;;;;17.13;7.70;;;;;;;14.32;100.00;101631.28;5081276;28;20155;-75
2022/05/21 06:10:39;;;;;;;21.88;9.82;;;;;;;14.42;100.00;101624.91;5079870;28;20044;-76
2022/05/21 06:13:06;;;;;;;21.00;7.25;;;;;;;14.29;100.00;101629.28;5078772;28;20534;-75
2022/05/21 06:15:34;;;;;;;27.88;11.07;;;;;;;14.37;100.00;101630.84;5074323;28;20233;-75
2022/05/21 06:18:08;;;;;;;16.17;7.00;;;;;;;14.38;100.00;101638.00;5077475;28;20481;-75
2022/05/21 06:20:36;;;;;;;19.52;7.50;;;;;;;14.21;100.00;101636.03;5083158;28;20134;-76
2022/05/21 06:23:02;;;;;;;12.40;4.60;;;;;;;14.33;100.00;101644.00;5082413;28;20044;-76
2022/05/21 06:25:33;;;;;;;25.08;11.90;;;;;;;14.45;100.00;101646.34;5078311;28;20745;-75
2022/05/21 06:28:01;;;;;;;5.45;2.65;;;;;;;14.39;100.00;101647.16;5085167;28;20111;-75
2022/05/21 06:30:30;;;;;;;16.83;5.70;;;;;;;14.31;100.00;101651.94;5079578;28;20090;-78
2022/05/21 06:32:59;;;;;;;17.67;6.55;;;;;;;14.37;100.00;101647.56;5080338;28;20063;-76
2022/05/21 06:35:27;;;;;;;13.90;6.05;;;;;;;14.27;100.00;101651.16;5078190;28;20136;-76
2022/05/21 06:37:54;;;;;;;19.85;9.20;;;;;;;14.20;100.00;101659.50;5083871;28;20048;-73
2022/05/21 06:40:21;;;;;;;23.35;10.05;;;;;;;14.43;100.00;101648.75;5079928;28;20044;-75
2022/05/21 06:42:48;;;;;;;18.73;7.07;;;;;;;14.31;100.00;101651.94;5077264;28;20062;-75
2022/05/21 06:45:15;;;;;;;26.05;10.40;;;;;;;14.49;100.00;101654.72;5083066;28;20079;-77
2022/05/21 06:47:41;;;;;;;17.60;8.18;;;;;;;14.49;100.00;101654.72;5077602;28;20505;-74
2022/05/21 06:50:08;;;;;;;10.73;4.32;;;;;;;14.39;100.00;101647.97;5075984;28;20529;-74
2022/05/21 06:52:36;;;;;;;23.23;10.13;;;;;;;14.56;100.00;101666.63;5080647;28;20054;-75
2022/05/21 06:55:10;;;;;;;13.35;5.25;;;;;;;14.47;100.00;101660.66;5085665;28;20098;-75
2022/05/21 06:57:36;;;;;;;10.95;5.47;;;;;;;14.53;100.00;101661.06;5084506;28;20150;-74
2022/05/21 07:00:05;;;;;;;19.30;4.68;;;;;;;14.55;100.00;101645.53;5079881;28;20051;-74
2022/05/21 07:02:31;;;;;;;16.00;6.25;;;;;;;14.57;100.00;101664.63;5067514;28;20037;-75
2022/05/21 07:07:44;;;;;;;13.77;5.05;;;;;;;14.56;100.00;101666.63;5075577;28;20058;-74
2022/05/21 07:10:17;;;;;;;14.63;6.28;;;;;;;14.63;100.00;101672.19;5078294;28;20131;-74
2022/05/21 07:12:44;;;;;;;24.10;10.80;;;;;;;14.69;100.00;101667.78;5076843;28;20040;-73
2022/05/21 07:15:11;;;;;;;16.40;5.45;;;;;;;14.54;100.00;101669.00;5072234;28;20044;-76
2022/05/21 07:17:38;;;;;;;16.90;5.50;;;;;;;14.69;100.00;101669.78;5077686;28;20091;-74
2022/05/21 07:20:08;;;;;;;24.27;10.25;;;;;;;14.75;100.00;101673.75;5087119;28;20056;-73
2022/05/21 07:22:34;;;;;;;13.18;6.03;;;;;;;14.74;100.00;101675.72;5075124;28;20132;-74
2022/05/21 07:25:02;;;;;;;15.45;4.93;;;;;;;14.73;100.00;101687.28;5079090;28;20036;-74
2022/05/21 07:27:29;;;;;;;15.55;6.43;;;;;;;14.78;100.00;101693.22;5078806;28;20128;-74
2022/05/21 07:29:55;;;;;;;21.20;9.40;;;;;;;14.86;100.00;101682.84;5086612;28;20166;-74
2022/05/21 07:32:27;;;;;;;14.48;4.45;;;;;;;14.78;100.00;101682.06;5077903;28;20068;-75
2022/05/21 07:35:01;;;;;;;28.02;9.10;;;;;;;14.96;100.00;101684.81;5070629;28;20057;-77
2022/05/21 07:37:27;;;;;;;21.58;8.23;;;;;;;14.96;100.00;101677.22;5071985;28;20131;-74
2022/05/21 07:39:54;;;;;;;14.98;5.45;;;;;;;14.88;100.00;101684.03;5074823;28;20117;-74
2022/05/21 07:42:22;;;;;;;12.25;5.32;;;;;;;14.79;100.00;101694.81;5081418;28;20040;-74
2022/05/21 07:44:49;;;;;;;22.30;8.57;;;;;;;14.89;100.00;101688.41;5074170;28;20516;-74
2022/05/21 07:47:15;;;;;;;7.65;2.80;;;;;;;14.90;100.00;101690.00;5074747;28;20052;-74
2022/05/21 07:49:42;;;;;;;24.85;8.70;;;;;;;15.05;100.00;101685.97;5071859;28;21654;-75
2022/05/21 07:52:09;;;;;;;22.90;9.38;;;;;;;15.12;100.00;101685.94;5068395;28;20048;-75
2022/05/21 07:54:35;;;;;;;20.30;9.13;;;;;;;15.26;100.00;101690.66;5074200;28;20131;-74
2022/05/21 07:57:02;;;;;;;13.35;4.38;;;;;;;15.21;100.00;101694.66;5067390;28;20497;-77
2022/05/21 07:59:29;;;;;;;16.25;6.88;;;;;;;15.37;100.00;101702.59;5076175;28;20117;-75
2022/05/21 08:01:56;;;;;;;20.15;6.13;;;;;;;15.19;100.00;101711.00;5081789;28;20044;-74
2022/05/21 08:04:22;;;;;;;24.70;11.15;;;;;;;15.36;100.00;101712.94;5080479;28;20079;-75
2022/05/21 08:06:49;;;;;;;13.00;5.30;;;;;;;15.31;100.00;101707.75;5076393;28;20285;-76
2022/05/21 08:09:19;;;;;;;13.50;5.18;;;;;;;15.40;100.00;101730.44;5083789;28;20074;-73
2022/05/21 08:11:46;;;;;;;27.85;10.30;;;;;;;15.48;100.00;101727.66;5079951;28;20048;-77
2022/05/21 08:14:12;;;;;;;18.08;7.20;;;;;;;15.47;100.00;101724.03;5080509;28;20158;-73
2022/05/21 08:16:40;;;;;;;12.70;4.75;;;;;;;15.31;100.00;101721.69;5085995;28;20102;-75
2022/05/21 08:19:06;;;;;;;16.88;6.93;;;;;;;15.28;100.00;101721.69;5084166;28;20090;-77
2022/05/21 08:21:33;;;;;;;18.00;6.70;;;;;;;15.27;100.00;101732.09;5073971;28;20135;-77
2022/05/21 08:26:56;;;;;;;16.58;6.07;;;;;;;15.28;100.00;101732.84;5087347;28;20817;-75
2022/05/21 08:29:29;;;;;;;21.02;7.95;;;;;;;15.31;100.00;101732.06;5080291;28;20420;-77
2022/05/21 08:31:55;;;;;;;21.85;5.78;;;;;;;15.26;100.00;101738.84;5080985;28;20058;-76
2022/05/21 08:34:25;;;;;;;19.77;5.40;;;;;;;15.27;100.00;101742.44;5080195;28;20048;-76
2022/05/21 08:36:53;;;;;;;23.80;10.15;;;;;;;15.41;100.00;101736.81;5077237;28;20052;-76
2022/05/21 08:39:21;;;;;;;19.00;6.65;;;;;;;15.41;100.00;101736.81;5079312;28;20508;-76
2022/05/21 08:42:06;;;;;;;24.35;10.68;;;;;;;15.40;100.00;101751.97;5083532;28;20066;-77
2022/05/21 08:44:43;;;;;;;22.67;10.02;;;;;;;15.35;100.00;101744.78;5082393;28;20143;-76
2022/05/21 08:47:18;;;;;;;26.25;10.20;;;;;;;15.36;100.00;101740.81;5082171;28;20066;-76
2022/05/21 08:49:59;;;;;;;7.88;3.67;;;;;;;15.35;100.00;101742.00;5073782;28;20485;-75
2022/05/21 08:52:33;;;;;;;22.40;9.52;;;;;;;15.27;100.00;101748.81;5067493;28;20055;-77
2022/05/21 08:55:03;;;;;;;9.80;4.78;;;;;;;15.34;100.00;101746.00;5077669;28;20142;-78
2022/05/21 08:57:47;;;;;;;14.05;5.05;;;;;;;15.31;100.00;101738.44;5078236;28;20048;-77
2022/05/21 09:00:18;;;;;;;14.27;5.03;;;;;;;15.35;100.00;101739.22;5089104;28;20415;-77
2022/05/21 09:02:44;;;;;;;13.80;6.25;;;;;;;15.36;100.00;101743.59;5079185;28;20044;-78
2022/05/21 09:05:14;;;;;;;21.48;7.15;;;;;;;15.33;100.00;101747.16;5078893;28;20131;-76
2022/05/21 09:07:49;;;;;;;10.07;4.43;;;;;;;15.34;100.00;101748.78;5080289;28;20142;-76
2022/05/21 09:10:32;;;;;;;16.10;6.97;;;;;;;15.45;100.00;101745.97;5075157;28;20048;-77
2022/05/21 09:13:16;;;;;;;17.55;6.80;;;;;;;15.88;100.00;101755.69;5080786;28;20047;-77
2022/05/21 09:18:31;;;;;;;22.77;9.52;;;;;;;16.21;100.00;101731.91;5073985;28;20142;-76
2022/05/21 09:21:20;;;;;;;16.30;6.35;;;;;;;16.25;100.00;101750.25;5089958;28;20040;-74
2022/05/21 09:23:48;;;;;;;18.08;7.15;;;;;;;16.49;100.00;101754.03;5077767;28;20125;-75
2022/05/21 09:26:17;;;;;;;14.30;4.63;;;;;;;16.71;100.00;101755.44;5057370;28;20076;-74
2022/05/21 09:28:44;;;;;;;23.52;9.43;;;;;;;16.83;100.00;101741.75;5073880;28;20567;-74
2022/05/21 09:31:13;;;;;;;19.17;4.93;;;;;;;16.91;100.00;101745.25;5067964;28;20931;-78
2022/05/21 09:33:46;;;;;;;14.23;4.20;;;;;;;17.02;100.00;101751.53;5068362;28;20049;-76
2022/05/21 09:36:30;;;;;;;25.65;11.30;;;;;;;17.28;98.14;101743.22;5068487;28;20056;-77
2022/05/21 09:38:56;;;;;;;23.30;8.70;;;;;;;17.30;97.15;101746.41;5071783;28;20052;-73
2022/05/21 09:41:28;;;;;;;15.55;5.80;;;;;;;17.19;97.18;101761.72;5074625;28;20054;-75
2022/05/21 09:47:15;;;;;;;17.75;6.38;;;;;;;17.08;97.32;101749.88;5078988;28;20052;-75
2022/05/21 09:49:42;;;;;;;13.35;6.35;;;;;;;17.10;95.81;101747.44;5080192;28;20066;-75
2022/05/21 09:52:22;;;;;;;25.45;10.65;;;;;;;17.45;96.62;101747.81;5074145;28;20072;-75
2022/05/21 09:54:49;;;;;;;20.95;7.53;;;;;;;17.53;97.59;101738.13;5085277;28;20073;-74
2022/05/21 09:57:26;;;;;;;15.30;5.50;;;;;;;17.51;95.51;101739.75;5087920;28;20054;-75
2022/05/21 10:00:17;;;;;;;27.58;11.02;;;;;;;17.82;93.51;101741.34;5085194;28;20056;-75
2022/05/21 10:02:47;;;;;;;17.83;7.00;;;;;;;17.88;90.22;101743.22;5071958;28;20044;-75
2022/05/21 10:05:20;;;;;;;13.68;6.18;;;;;;;18.07;90.61;101750.13;5082111;28;20469;-76
2022/05/21 10:11:02;;;;;;;11.68;4.43;;;;;;;18.10;90.55;101735.28;5073993;28;20044;-76
2022/05/21 10:13:47;;;;;;;12.07;4.50;;;;;;;18.02;89.63;101745.00;5073674;28;20048;-74
2022/05/21 10:16:24;;;;;;;14.07;4.80;;;;;;;18.33;89.16;101732.53;5078105;28;20048;-77
2022/05/21 10:19:04;;;;;;;17.25;5.43;;;;;;;17.99;89.18;101741.06;5077221;28;20138;-75
2022/05/21 10:22:06;;;;;;;19.95;7.00;;;;;;;17.94;88.21;101741.53;5076441;28;20054;-74
2022/05/21 10:25:02;;;;;;;17.38;7.15;;;;;;;18.01;87.26;101740.63;5075066;28;20058;-76
2022/05/21 10:27:57;;;;;;;5.38;3.00;;;;;;;17.84;88.18;101750.09;5073596;28;20156;-74
2022/05/21 10:30:38;;;;;;;18.65;8.90;;;;;;;17.95;88.76;101747.91;5085995;28;20556;-75
2022/05/21 10:33:25;;;;;;;12.68;5.25;;;;;;;18.06;85.83;101751.38;5082888;28;20070;-75
2022/05/21 10:35:58;;;;;;;21.27;10.77;;;;;;;18.22;86.13;101747.91;5072755;28;20072;-74
2022/05/21 10:39:18;;;;;;;12.25;3.65;;;;;;;17.92;86.27;101748.75;5075455;28;20773;-73
2022/05/21 10:42:02;;;;;;;25.60;8.65;;;;;;;17.91;86.49;101752.78;5043935;28;20127;-75
2022/05/21 10:44:51;;;;;;;16.48;4.68;;;;;;;17.55;90.08;101743.31;5085560;28;20592;-75
2022/05/21 10:47:55;;;;;;;15.85;5.30;;;;;;;17.43;93.54;101753.06;5073660;28;20080;-75
2022/05/21 10:50:31;;;;;;;20.83;7.75;;;;;;;17.63;92.45;101758.78;5077886;28;20610;-75
2022/05/21 10:53:00;;;;;;;21.77;9.50;;;;;;;17.63;90.08;101748.41;5086752;28;20079;-76
2022/05/21 10:55:41;;;;;;;18.30;6.70;;;;;;;17.56;89.11;101750.50;5078448;28;20053;-74
2022/05/21 10:58:25;;;;;;;10.13;4.13;;;;;;;17.45;89.21;101742.22;5078398;28;20048;-77
2022/05/21 11:01:23;;;;;;;6.78;2.72;;;;;;;17.44;89.00;101762.22;5081527;28;20052;-74
2022/05/21 11:04:04;;;;;;;13.27;4.85;;;;;;;17.43;88.72;101757.84;5079920;28;20048;-76
2022/05/21 11:06:52;;;;;;;7.80;2.88;;;;;;;17.38;88.36;101755.50;5077276;28;20079;-74
2022/05/21 11:09:25;;;;;;;23.92;7.43;;;;;;;17.60;90.17;101762.44;5075210;28;20533;-75
2022/05/21 11:11:57;;;;;;;26.08;8.68;;;;;;;17.58;88.79;101762.84;5080409;28;20134;-76
2022/05/21 11:14:33;;;;;;;9.18;2.50;;;;;;;17.52;91.75;101767.31;5077630;28;20135;-75
2022/05/21 11:17:14;;;;;;;21.10;4.60;;;;;;;17.45;89.72;101758.25;5073387;28;20063;-77
2022/05/21 11:19:51;;;;;;;18.48;5.10;;;;;;;17.64;88.44;101751.97;5082464;28;20053;-75
2022/05/21 11:22:32;;;;;;;8.48;2.85;;;;;;;17.72;87.49;101759.06;5074973;28;20497;-77
2022/05/21 11:25:12;;;;;;;14.27;4.45;;;;;;;17.98;88.47;101754.69;5072689;28;20049;-75
2022/05/21 11:27:49;;;;;;;18.58;6.90;;;;;;;18.13;85.16;101748.44;5073317;28;20048;-75
2022/05/21 11:30:20;;;;;;;9.50;4.28;;;;;;;18.11;83.85;101748.06;5077184;28;20044;-75
2022/05/21 11:38:43;;;;;;;9.93;4.07;;;;;;;18.32;80.50;101746.94;5079493;28;20143;-74
2022/05/21 11:41:30;;;;;;;22.50;8.25;;;;;;;18.48;81.29;101744.28;5074911;28;20151;-73
2022/05/21 11:47:13;;;;;;;21.52;7.93;;;;;;;18.59;77.73;101750.53;5079659;28;20055;-75
2022/05/21 11:49:44;;;;;;;19.92;8.60;;;;;;;18.72;78.90;101749.47;5077716;28;20045;-75
2022/05/21 11:52:37;;;;;;;18.05;7.55;;;;;;;18.85;77.33;101753.22;5078852;28;20079;-73
2022/05/21 11:55:27;;;;;;;16.98;7.10;;;;;;;19.01;75.02;101750.53;5076752;28;20056;-74